sensor_id;sensor_type;location;lat;lon;timestamp;pressure;altitude;pressure_sealevel;temperature;humidity
25510;BME280;13413;52.336;21.200;2024-02-14T00:01:44;100928.87;;;6.83;70.34
25510;BME280;13413;52.336;21.200;2024-02-14T00:04:32;100927.77;;;6.83;70.44
25510;BME280;13413;52.336;21.200;2024-02-14T00:07:19;100931.05;;;6.88;70.56
25510;BME280;13413;52.336;21.200;2024-02-14T00:10:07;100932.40;;;6.92;70.53
25510;BME280;13413;52.336;21.200;2024-02-14T00:12:55;100933.11;;;6.94;70.60
25510;BME280;13413;52.336;21.200;2024-02-14T00:15:42;100940.51;;;6.98;70.57
25510;BME280;13413;52.336;21.200;2024-02-14T00:18:30;100939.27;;;7.02;70.69
25510;BME280;13413;52.336;21.200;2024-02-14T00:21:17;100941.92;;;7.04;70.63
25510;BME280;13413;52.336;21.200;2024-02-14T00:24:05;100948.19;;;7.03;70.68
25510;BME280;13413;52.336;21.200;2024-02-14T00:26:52;100954.12;;;6.97;70.61
25510;BME280;13413;52.336;21.200;2024-02-14T00:29:40;100954.55;;;6.93;70.69
25510;BME280;13413;52.336;21.200;2024-02-14T00:32:27;100953.73;;;6.92;70.78
25510;BME280;13413;52.336;21.200;2024-02-14T00:35:14;100949.54;;;6.90;70.83
25510;BME280;13413;52.336;21.200;2024-02-14T00:38:01;100953.91;;;6.92;70.82
25510;BME280;13413;52.336;21.200;2024-02-14T00:40:49;100954.29;;;6.91;70.85
25510;BME280;13413;52.336;21.200;2024-02-14T00:43:36;100956.02;;;6.94;70.86
25510;BME280;13413;52.336;21.200;2024-02-14T00:46:23;100953.65;;;6.94;70.86
25510;BME280;13413;52.336;21.200;2024-02-14T00:49:10;100956.10;;;6.91;70.91
25510;BME280;13413;52.336;21.200;2024-02-14T00:51:57;100959.59;;;6.89;70.87
25510;BME280;13413;52.336;21.200;2024-02-14T00:54:44;100955.36;;;6.81;70.99
25510;BME280;13413;52.336;21.200;2024-02-14T00:57:33;100954.69;;;6.77;71.05
25510;BME280;13413;52.336;21.200;2024-02-14T01:00:20;100953.40;;;6.74;71.05
25510;BME280;13413;52.336;21.200;2024-02-14T01:03:08;100959.48;;;6.75;71.19
25510;BME280;13413;52.336;21.200;2024-02-14T01:05:54;100955.67;;;6.74;71.19
25510;BME280;13413;52.336;21.200;2024-02-14T01:08:42;100955.38;;;6.75;71.29
25510;BME280;13413;52.336;21.200;2024-02-14T01:11:29;100950.84;;;6.73;71.19
25510;BME280;13413;52.336;21.200;2024-02-14T01:14:17;100954.70;;;6.68;71.20
25510;BME280;13413;52.336;21.200;2024-02-14T01:17:04;100953.16;;;6.63;71.35
25510;BME280;13413;52.336;21.200;2024-02-14T01:19:52;100956.17;;;6.61;71.41
25510;BME280;13413;52.336;21.200;2024-02-14T01:22:39;100961.50;;;6.57;71.42
25510;BME280;13413;52.336;21.200;2024-02-14T01:25:27;100968.48;;;6.51;71.56
25510;BME280;13413;52.336;21.200;2024-02-14T01:28:14;100970.80;;;6.42;71.58
25510;BME280;13413;52.336;21.200;2024-02-14T01:31:00;100963.11;;;6.38;71.68
25510;BME280;13413;52.336;21.200;2024-02-14T01:41:30;100960.01;;;6.39;71.67
25510;BME280;13413;52.336;21.200;2024-02-14T01:44:17;100961.34;;;6.30;71.63
25510;BME280;13413;52.336;21.200;2024-02-14T01:47:05;100960.80;;;6.24;71.54
25510;BME280;13413;52.336;21.200;2024-02-14T01:49:53;100960.40;;;6.13;71.63
25510;BME280;13413;52.336;21.200;2024-02-14T01:52:41;100959.13;;;6.09;71.84
25510;BME280;13413;52.336;21.200;2024-02-14T01:55:29;100962.28;;;6.12;71.73
25510;BME280;13413;52.336;21.200;2024-02-14T01:58:16;100964.33;;;6.12;71.76
25510;BME280;13413;52.336;21.200;2024-02-14T02:01:04;100968.19;;;6.08;71.64
25510;BME280;13413;52.336;21.200;2024-02-14T02:03:51;100969.91;;;6.07;71.80
25510;BME280;13413;52.336;21.200;2024-02-14T02:09:41;100975.24;;;5.97;71.82
25510;BME280;13413;52.336;21.200;2024-02-14T02:12:29;100979.24;;;5.94;71.99
25510;BME280;13413;52.336;21.200;2024-02-14T02:15:16;100979.55;;;5.92;72.01
25510;BME280;13413;52.336;21.200;2024-02-14T02:18:05;100982.02;;;5.90;72.06
25510;BME280;13413;52.336;21.200;2024-02-14T02:20:52;100980.27;;;5.88;72.00
25510;BME280;13413;52.336;21.200;2024-02-14T02:23:39;100981.41;;;5.85;72.01
25510;BME280;13413;52.336;21.200;2024-02-14T02:26:27;100980.85;;;5.81;71.98
25510;BME280;13413;52.336;21.200;2024-02-14T02:29:15;100986.20;;;5.76;72.05
25510;BME280;13413;52.336;21.200;2024-02-14T02:32:03;100984.93;;;5.72;71.94
25510;BME280;13413;52.336;21.200;2024-02-14T02:34:50;100988.11;;;5.68;72.06
25510;BME280;13413;52.336;21.200;2024-02-14T02:37:38;100992.85;;;5.68;72.19
25510;BME280;13413;52.336;21.200;2024-02-14T02:40:25;100995.98;;;5.64;72.08
25510;BME280;13413;52.336;21.200;2024-02-14T02:43:13;100994.58;;;5.57;71.94
25510;BME280;13413;52.336;21.200;2024-02-14T02:46:00;100991.98;;;5.51;71.94
25510;BME280;13413;52.336;21.200;2024-02-14T02:48:47;100999.06;;;5.46;71.80
25510;BME280;13413;52.336;21.200;2024-02-14T02:51:34;100992.69;;;5.41;71.97
25510;BME280;13413;52.336;21.200;2024-02-14T02:54:22;100996.45;;;5.37;72.27
25510;BME280;13413;52.336;21.200;2024-02-14T02:57:10;100998.16;;;5.36;72.15
25510;BME280;13413;52.336;21.200;2024-02-14T02:59:57;100997.66;;;5.23;71.93
25510;BME280;13413;52.336;21.200;2024-02-14T03:02:44;100997.61;;;5.15;72.07
25510;BME280;13413;52.336;21.200;2024-02-14T03:05:31;101000.55;;;5.09;72.21
25510;BME280;13413;52.336;21.200;2024-02-14T03:08:19;101001.25;;;5.07;72.09
25510;BME280;13413;52.336;21.200;2024-02-14T03:11:07;101004.35;;;4.99;72.25
25510;BME280;13413;52.336;21.200;2024-02-14T03:13:55;101002.96;;;4.86;72.27
25510;BME280;13413;52.336;21.200;2024-02-14T03:16:42;101009.54;;;4.72;72.32
25510;BME280;13413;52.336;21.200;2024-02-14T03:19:30;101011.97;;;4.65;72.66
25510;BME280;13413;52.336;21.200;2024-02-14T03:22:17;101012.48;;;4.72;72.97
25510;BME280;13413;52.336;21.200;2024-02-14T03:25:04;101018.14;;;4.74;72.88
25510;BME280;13413;52.336;21.200;2024-02-14T03:30:52;101029.64;;;4.65;72.82
25510;BME280;13413;52.336;21.200;2024-02-14T03:33:39;101025.20;;;4.68;72.96
25510;BME280;13413;52.336;21.200;2024-02-14T03:36:27;101026.95;;;4.69;73.01
25510;BME280;13413;52.336;21.200;2024-02-14T03:39:14;101024.47;;;4.62;73.04
25510;BME280;13413;52.336;21.200;2024-02-14T03:42:01;101031.55;;;4.50;73.27
25510;BME280;13413;52.336;21.200;2024-02-14T03:44:49;101026.74;;;4.42;73.47
25510;BME280;13413;52.336;21.200;2024-02-14T03:47:36;101026.42;;;4.44;73.51
25510;BME280;13413;52.336;21.200;2024-02-14T03:50:24;101029.98;;;4.52;73.70
25510;BME280;13413;52.336;21.200;2024-02-14T03:53:15;101031.20;;;4.59;73.68
25510;BME280;13413;52.336;21.200;2024-02-14T04:01:26;101040.85;;;4.59;73.83
25510;BME280;13413;52.336;21.200;2024-02-14T04:04:14;101042.34;;;4.58;73.94
25510;BME280;13413;52.336;21.200;2024-02-14T04:07:01;101044.44;;;4.60;73.90
25510;BME280;13413;52.336;21.200;2024-02-14T04:09:49;101044.55;;;4.65;74.21
25510;BME280;13413;52.336;21.200;2024-02-14T04:12:36;101046.25;;;4.68;73.97
25510;BME280;13413;52.336;21.200;2024-02-14T04:15:23;101047.18;;;4.67;73.87
25510;BME280;13413;52.336;21.200;2024-02-14T04:18:10;101048.92;;;4.68;74.03
25510;BME280;13413;52.336;21.200;2024-02-14T04:20:57;101048.59;;;4.70;74.14
25510;BME280;13413;52.336;21.200;2024-02-14T04:23:45;101046.64;;;4.74;74.06
25510;BME280;13413;52.336;21.200;2024-02-14T04:26:33;101046.27;;;4.75;73.99
25510;BME280;13413;52.336;21.200;2024-02-14T04:29:20;101044.55;;;4.72;73.97
25510;BME280;13413;52.336;21.200;2024-02-14T04:32:08;101045.70;;;4.66;73.93
25510;BME280;13413;52.336;21.200;2024-02-14T04:34:56;101049.59;;;4.55;73.96
25510;BME280;13413;52.336;21.200;2024-02-14T04:37:43;101051.17;;;4.44;73.99
25510;BME280;13413;52.336;21.200;2024-02-14T04:40:31;101052.89;;;4.39;74.08
25510;BME280;13413;52.336;21.200;2024-02-14T04:43:18;101057.92;;;4.40;73.97
25510;BME280;13413;52.336;21.200;2024-02-14T04:46:08;101061.62;;;4.40;73.77
25510;BME280;13413;52.336;21.200;2024-02-14T04:48:56;101062.09;;;4.38;73.87
25510;BME280;13413;52.336;21.200;2024-02-14T04:51:49;101067.73;;;4.38;73.60
25510;BME280;13413;52.336;21.200;2024-02-14T04:54:43;101064.46;;;4.37;73.85
25510;BME280;13413;52.336;21.200;2024-02-14T04:57:37;101069.19;;;4.35;73.71
25510;BME280;13413;52.336;21.200;2024-02-14T05:00:31;101076.79;;;4.30;73.63
25510;BME280;13413;52.336;21.200;2024-02-14T05:03:25;101078.10;;;4.19;73.73
25510;BME280;13413;52.336;21.200;2024-02-14T05:06:19;101076.74;;;4.14;73.80
25510;BME280;13413;52.336;21.200;2024-02-14T05:09:13;101081.00;;;4.11;73.75
25510;BME280;13413;52.336;21.200;2024-02-14T05:12:07;101080.44;;;3.98;73.50
25510;BME280;13413;52.336;21.200;2024-02-14T05:15:01;101083.12;;;3.90;73.79
25510;BME280;13413;52.336;21.200;2024-02-14T05:17:55;101079.46;;;3.90;74.21
25510;BME280;13413;52.336;21.200;2024-02-14T05:20:49;101081.23;;;3.97;74.37
25510;BME280;13413;52.336;21.200;2024-02-14T05:23:43;101084.46;;;4.00;74.05
25510;BME280;13413;52.336;21.200;2024-02-14T05:26:37;101086.16;;;3.94;73.66
25510;BME280;13413;52.336;21.200;2024-02-14T05:29:31;101088.48;;;3.91;73.97
25510;BME280;13413;52.336;21.200;2024-02-14T05:32:26;101091.02;;;3.92;73.91
25510;BME280;13413;52.336;21.200;2024-02-14T05:35:19;101084.66;;;3.88;73.70
25510;BME280;13413;52.336;21.200;2024-02-14T05:38:13;101086.86;;;3.85;73.47
25510;BME280;13413;52.336;21.200;2024-02-14T05:41:07;101090.52;;;3.76;73.67
25510;BME280;13413;52.336;21.200;2024-02-14T05:44:01;101090.14;;;3.76;73.88
25510;BME280;13413;52.336;21.200;2024-02-14T05:46:55;101091.45;;;3.77;74.15
25510;BME280;13413;52.336;21.200;2024-02-14T05:49:52;101092.48;;;3.80;74.02
25510;BME280;13413;52.336;21.200;2024-02-14T05:52:45;101095.80;;;3.78;74.19
25510;BME280;13413;52.336;21.200;2024-02-14T05:55:39;101096.70;;;3.77;73.75
25510;BME280;13413;52.336;21.200;2024-02-14T05:58:33;101102.88;;;3.74;73.91
25510;BME280;13413;52.336;21.200;2024-02-14T06:01:27;101107.73;;;3.72;73.94
25510;BME280;13413;52.336;21.200;2024-02-14T06:04:21;101108.76;;;3.70;74.04
25510;BME280;13413;52.336;21.200;2024-02-14T06:07:15;101106.76;;;3.64;73.70
25510;BME280;13413;52.336;21.200;2024-02-14T06:10:10;101104.80;;;3.57;73.99
25510;BME280;13413;52.336;21.200;2024-02-14T06:13:03;101103.32;;;3.52;73.95
25510;BME280;13413;52.336;21.200;2024-02-14T06:21:34;101111.99;;;3.62;74.38
25510;BME280;13413;52.336;21.200;2024-02-14T06:24:21;101116.66;;;3.65;74.36
25510;BME280;13413;52.336;21.200;2024-02-14T06:27:08;101119.16;;;3.69;74.61
25510;BME280;13413;52.336;21.200;2024-02-14T06:29:55;101116.55;;;3.73;74.60
25510;BME280;13413;52.336;21.200;2024-02-14T06:32:42;101120.11;;;3.72;74.33
25510;BME280;13413;52.336;21.200;2024-02-14T06:35:30;101122.39;;;3.68;74.83
25510;BME280;13413;52.336;21.200;2024-02-14T06:38:17;101117.25;;;3.69;75.02
25510;BME280;13413;52.336;21.200;2024-02-14T06:41:05;101120.60;;;3.76;74.94
25510;BME280;13413;52.336;21.200;2024-02-14T06:43:52;101121.59;;;3.81;75.41
25510;BME280;13413;52.336;21.200;2024-02-14T06:46:39;101123.55;;;3.88;75.16
25510;BME280;13413;52.336;21.200;2024-02-14T06:49:26;101120.56;;;3.93;75.34
25510;BME280;13413;52.336;21.200;2024-02-14T06:52:13;101127.08;;;3.99;75.27
25510;BME280;13413;52.336;21.200;2024-02-14T06:55:21;101126.11;;;4.05;75.52
25510;BME280;13413;52.336;21.200;2024-02-14T06:58:08;101129.40;;;4.10;75.41
25510;BME280;13413;52.336;21.200;2024-02-14T07:00:56;101127.40;;;4.15;75.51
25510;BME280;13413;52.336;21.200;2024-02-14T07:03:43;101132.27;;;4.18;75.13
25510;BME280;13413;52.336;21.200;2024-02-14T07:06:31;101135.34;;;4.19;75.25
25510;BME280;13413;52.336;21.200;2024-02-14T07:09:18;101136.36;;;4.17;75.72
25510;BME280;13413;52.336;21.200;2024-02-14T07:12:08;101134.27;;;4.15;75.81
25510;BME280;13413;52.336;21.200;2024-02-14T07:14:56;101132.42;;;4.11;76.05
25510;BME280;13413;52.336;21.200;2024-02-14T07:17:43;101131.65;;;4.10;76.11
25510;BME280;13413;52.336;21.200;2024-02-14T07:20:31;101130.36;;;4.11;76.38
25510;BME280;13413;52.336;21.200;2024-02-14T07:23:22;101135.27;;;4.11;76.40
25510;BME280;13413;52.336;21.200;2024-02-14T07:26:10;101134.02;;;4.13;76.68
25510;BME280;13413;52.336;21.200;2024-02-14T07:28:57;101133.55;;;4.20;76.77
25510;BME280;13413;52.336;21.200;2024-02-14T07:31:44;101136.02;;;4.24;76.94
25510;BME280;13413;52.336;21.200;2024-02-14T07:34:32;101130.09;;;4.29;77.30
25510;BME280;13413;52.336;21.200;2024-02-14T07:37:20;101130.10;;;4.35;77.55
25510;BME280;13413;52.336;21.200;2024-02-14T07:43:12;101134.45;;;4.53;77.62
25510;BME280;13413;52.336;21.200;2024-02-14T07:45:59;101136.23;;;4.64;77.79
25510;BME280;13413;52.336;21.200;2024-02-14T07:48:47;101138.20;;;4.71;78.39
25510;BME280;13413;52.336;21.200;2024-02-14T07:51:34;101140.94;;;4.83;78.14
25510;BME280;13413;52.336;21.200;2024-02-14T07:54:22;101144.49;;;4.93;77.95
25510;BME280;13413;52.336;21.200;2024-02-14T07:57:09;101140.56;;;5.05;77.87
25510;BME280;13413;52.336;21.200;2024-02-14T07:59:57;101139.76;;;5.15;77.83
25510;BME280;13413;52.336;21.200;2024-02-14T08:02:44;101144.48;;;5.27;77.72
25510;BME280;13413;52.336;21.200;2024-02-14T08:05:32;101146.15;;;5.38;77.76
25510;BME280;13413;52.336;21.200;2024-02-14T08:08:19;101142.46;;;5.51;77.52
25510;BME280;13413;52.336;21.200;2024-02-14T08:11:07;101141.48;;;5.63;77.34
25510;BME280;13413;52.336;21.200;2024-02-14T08:13:54;101139.45;;;5.73;77.00
25510;BME280;13413;52.336;21.200;2024-02-14T08:16:42;101140.19;;;5.83;77.09
25510;BME280;13413;52.336;21.200;2024-02-14T08:19:29;101137.39;;;5.90;76.78
25510;BME280;13413;52.336;21.200;2024-02-14T08:22:37;101136.48;;;6.02;76.46
25510;BME280;13413;52.336;21.200;2024-02-14T08:25:24;101138.95;;;6.15;76.26
25510;BME280;13413;52.336;21.200;2024-02-14T08:28:11;101140.29;;;6.26;75.94
25510;BME280;13413;52.336;21.200;2024-02-14T08:30:59;101139.67;;;6.42;76.17
25510;BME280;13413;52.336;21.200;2024-02-14T08:33:44;101141.13;;;6.56;75.69
25510;BME280;13413;52.336;21.200;2024-02-14T08:41:33;101142.02;;;6.90;74.93
25510;BME280;13413;52.336;21.200;2024-02-14T08:44:21;101140.80;;;6.97;73.88
25510;BME280;13413;52.336;21.200;2024-02-14T08:47:08;101141.39;;;7.05;73.68
25510;BME280;13413;52.336;21.200;2024-02-14T08:49:55;101143.36;;;7.21;73.63
25510;BME280;13413;52.336;21.200;2024-02-14T08:52:43;101141.73;;;7.37;73.58
25510;BME280;13413;52.336;21.200;2024-02-14T08:55:30;101138.27;;;7.50;73.16
25510;BME280;13413;52.336;21.200;2024-02-14T08:58:17;101139.25;;;7.65;72.06
25510;BME280;13413;52.336;21.200;2024-02-14T09:01:05;101139.67;;;7.70;71.96
25510;BME280;13413;52.336;21.200;2024-02-14T09:03:52;101137.88;;;7.83;72.55
25510;BME280;13413;52.336;21.200;2024-02-14T09:06:39;101139.99;;;8.01;71.83
25510;BME280;13413;52.336;21.200;2024-02-14T09:09:27;101141.58;;;8.14;71.37
25510;BME280;13413;52.336;21.200;2024-02-14T09:12:14;101145.23;;;8.36;71.50
25510;BME280;13413;52.336;21.200;2024-02-14T09:15:02;101144.80;;;8.52;70.73
25510;BME280;13413;52.336;21.200;2024-02-14T09:17:50;101141.60;;;8.65;70.09
25510;BME280;13413;52.336;21.200;2024-02-14T09:20:38;101146.90;;;8.81;69.44
25510;BME280;13413;52.336;21.200;2024-02-14T09:23:25;101145.11;;;8.89;68.40
25510;BME280;13413;52.336;21.200;2024-02-14T09:26:12;101145.36;;;8.98;68.00
25510;BME280;13413;52.336;21.200;2024-02-14T09:28:59;101150.05;;;9.06;66.62
25510;BME280;13413;52.336;21.200;2024-02-14T09:31:46;101148.19;;;9.07;66.43
25510;BME280;13413;52.336;21.200;2024-02-14T09:34:34;101140.76;;;9.14;66.55
25510;BME280;13413;52.336;21.200;2024-02-14T09:37:21;101138.48;;;9.34;65.88
25510;BME280;13413;52.336;21.200;2024-02-14T09:40:10;101134.09;;;9.52;66.30
25510;BME280;13413;52.336;21.200;2024-02-14T09:42:58;101133.46;;;9.74;64.89
25510;BME280;13413;52.336;21.200;2024-02-14T09:45:50;101129.30;;;9.79;63.79
25510;BME280;13413;52.336;21.200;2024-02-14T09:48:39;101130.36;;;9.91;64.28
25510;BME280;13413;52.336;21.200;2024-02-14T09:51:26;101133.61;;;9.96;62.68
25510;BME280;13413;52.336;21.200;2024-02-14T09:54:16;101136.48;;;10.01;61.94
25510;BME280;13413;52.336;21.200;2024-02-14T09:57:04;101133.67;;;10.09;62.12
25510;BME280;13413;52.336;21.200;2024-02-14T09:59:53;101137.55;;;10.22;61.49
25510;BME280;13413;52.336;21.200;2024-02-14T10:02:40;101136.70;;;10.29;60.51
25510;BME280;13413;52.336;21.200;2024-02-14T10:05:28;101129.70;;;10.37;60.72
25510;BME280;13413;52.336;21.200;2024-02-14T10:08:15;101128.65;;;10.53;59.88
25510;BME280;13413;52.336;21.200;2024-02-14T10:11:03;101129.92;;;10.67;59.14
25510;BME280;13413;52.336;21.200;2024-02-14T10:13:51;101124.79;;;10.82;60.08
25510;BME280;13413;52.336;21.200;2024-02-14T10:16:42;101128.67;;;11.04;58.90
25510;BME280;13413;52.336;21.200;2024-02-14T10:19:29;101126.61;;;11.04;57.09
25510;BME280;13413;52.336;21.200;2024-02-14T10:22:17;101125.54;;;11.09;58.20
25510;BME280;13413;52.336;21.200;2024-02-14T10:25:05;101127.10;;;11.11;56.57
25510;BME280;13413;52.336;21.200;2024-02-14T10:27:52;101124.20;;;11.01;56.17
25510;BME280;13413;52.336;21.200;2024-02-14T10:30:54;101125.92;;;10.92;56.03
25510;BME280;13413;52.336;21.200;2024-02-14T10:33:44;101124.80;;;10.81;55.67
25510;BME280;13413;52.336;21.200;2024-02-14T10:36:33;101128.89;;;10.95;56.02
25510;BME280;13413;52.336;21.200;2024-02-14T10:39:20;101122.23;;;11.12;56.14
25510;BME280;13413;52.336;21.200;2024-02-14T10:42:08;101118.67;;;11.24;55.46
25510;BME280;13413;52.336;21.200;2024-02-14T10:44:56;101117.25;;;11.48;56.27
25510;BME280;13413;52.336;21.200;2024-02-14T10:47:57;101107.82;;;11.66;53.69
25510;BME280;13413;52.336;21.200;2024-02-14T10:50:46;101112.73;;;11.74;54.56
25510;BME280;13413;52.336;21.200;2024-02-14T10:53:34;101109.73;;;11.56;52.76
25510;BME280;13413;52.336;21.200;2024-02-14T11:06:53;101102.56;;;11.88;52.73
25510;BME280;13413;52.336;21.200;2024-02-14T11:09:41;101107.61;;;12.01;52.70
25510;BME280;13413;52.336;21.200;2024-02-14T11:12:33;101103.20;;;11.92;51.43
25510;BME280;13413;52.336;21.200;2024-02-14T11:15:22;101107.23;;;11.56;51.15
25510;BME280;13413;52.336;21.200;2024-02-14T11:18:10;101101.56;;;11.54;52.22
25510;BME280;13413;52.336;21.200;2024-02-14T11:20:58;101102.13;;;11.43;52.06
25510;BME280;13413;52.336;21.200;2024-02-14T11:23:55;101102.91;;;11.07;51.57
25510;BME280;13413;52.336;21.200;2024-02-14T11:29:54;101104.27;;;10.82;53.37
25510;BME280;13413;52.336;21.200;2024-02-14T11:32:41;101097.72;;;11.01;52.79
25510;BME280;13413;52.336;21.200;2024-02-14T11:35:29;101094.05;;;11.00;52.33
25510;BME280;13413;52.336;21.200;2024-02-14T11:38:19;101087.04;;;11.13;52.24
25510;BME280;13413;52.336;21.200;2024-02-14T11:41:06;101083.09;;;11.37;51.82
25510;BME280;13413;52.336;21.200;2024-02-14T11:43:53;101080.24;;;11.58;51.52
25510;BME280;13413;52.336;21.200;2024-02-14T11:46:41;101079.10;;;11.82;51.41
25510;BME280;13413;52.336;21.200;2024-02-14T11:49:29;101078.75;;;11.77;49.68
25510;BME280;13413;52.336;21.200;2024-02-14T11:52:16;101082.48;;;11.64;49.95
25510;BME280;13413;52.336;21.200;2024-02-14T11:55:05;101080.02;;;11.64;49.29
25510;BME280;13413;52.336;21.200;2024-02-14T11:57:52;101078.17;;;11.70;50.32
25510;BME280;13413;52.336;21.200;2024-02-14T12:01:04;101080.96;;;11.97;50.24
25510;BME280;13413;52.336;21.200;2024-02-14T12:03:52;101085.16;;;12.18;48.98
25510;BME280;13413;52.336;21.200;2024-02-14T12:06:41;101087.67;;;12.30;48.68
25510;BME280;13413;52.336;21.200;2024-02-14T12:09:28;101082.21;;;12.33;48.03
25510;BME280;13413;52.336;21.200;2024-02-14T12:12:16;101080.15;;;12.30;47.51
25510;BME280;13413;52.336;21.200;2024-02-14T12:15:04;101081.92;;;12.31;47.61
25510;BME280;13413;52.336;21.200;2024-02-14T12:17:51;101074.86;;;12.37;47.29
25510;BME280;13413;52.336;21.200;2024-02-14T12:20:39;101076.98;;;12.49;47.40
25510;BME280;13413;52.336;21.200;2024-02-14T12:23:26;101076.73;;;12.47;47.20
25510;BME280;13413;52.336;21.200;2024-02-14T12:26:13;101076.71;;;12.57;46.68
25510;BME280;13413;52.336;21.200;2024-02-14T12:29:05;101076.57;;;12.71;47.00
25510;BME280;13413;52.336;21.200;2024-02-14T12:31:52;101073.73;;;12.80;46.82
25510;BME280;13413;52.336;21.200;2024-02-14T12:34:49;101074.80;;;12.72;46.04
25510;BME280;13413;52.336;21.200;2024-02-14T12:37:37;101072.56;;;12.56;46.03
25510;BME280;13413;52.336;21.200;2024-02-14T12:40:25;101067.25;;;12.47;46.36
25510;BME280;13413;52.336;21.200;2024-02-14T12:43:13;101069.39;;;12.49;46.78
25510;BME280;13413;52.336;21.200;2024-02-14T12:46:00;101068.49;;;12.59;46.76
25510;BME280;13413;52.336;21.200;2024-02-14T12:48:47;101071.73;;;12.53;46.13
25510;BME280;13413;52.336;21.200;2024-02-14T12:51:35;101073.90;;;12.59;46.35
25510;BME280;13413;52.336;21.200;2024-02-14T12:54:22;101072.60;;;12.63;46.33
25510;BME280;13413;52.336;21.200;2024-02-14T12:57:10;101073.39;;;12.76;46.83
25510;BME280;13413;52.336;21.200;2024-02-14T12:59:57;101070.54;;;12.64;45.64
25510;BME280;13413;52.336;21.200;2024-02-14T13:02:45;101068.63;;;12.42;45.82
25510;BME280;13413;52.336;21.200;2024-02-14T13:05:32;101063.17;;;12.32;46.32
25510;BME280;13413;52.336;21.200;2024-02-14T13:08:20;101064.42;;;12.19;45.65
25510;BME280;13413;52.336;21.200;2024-02-14T13:11:27;101063.77;;;12.14;45.93
25510;BME280;13413;52.336;21.200;2024-02-14T13:14:13;101059.72;;;11.99;45.49
25510;BME280;13413;52.336;21.200;2024-02-14T13:16:58;101063.11;;;11.97;45.90
25510;BME280;13413;52.336;21.200;2024-02-14T13:19:44;101057.75;;;12.01;46.11
25510;BME280;13413;52.336;21.200;2024-02-14T13:27:55;101064.59;;;12.21;46.62
25510;BME280;13413;52.336;21.200;2024-02-14T13:30:43;101066.59;;;12.14;45.74
25510;BME280;13413;52.336;21.200;2024-02-14T13:33:30;101068.11;;;12.11;45.63
25510;BME280;13413;52.336;21.200;2024-02-14T13:36:18;101062.40;;;12.05;45.86
25510;BME280;13413;52.336;21.200;2024-02-14T13:39:05;101061.60;;;12.16;46.02
25510;BME280;13413;52.336;21.200;2024-02-14T13:41:53;101061.69;;;12.21;45.81
25510;BME280;13413;52.336;21.200;2024-02-14T13:44:40;101058.33;;;12.29;45.93
25510;BME280;13413;52.336;21.200;2024-02-14T13:47:28;101059.77;;;12.33;45.77
25510;BME280;13413;52.336;21.200;2024-02-14T13:50:15;101060.65;;;12.26;45.47
25510;BME280;13413;52.336;21.200;2024-02-14T13:53:02;101059.67;;;12.19;45.72
25510;BME280;13413;52.336;21.200;2024-02-14T13:55:49;101061.94;;;12.04;45.40
25510;BME280;13413;52.336;21.200;2024-02-14T13:58:37;101058.27;;;11.91;45.35
25510;BME280;13413;52.336;21.200;2024-02-14T14:01:24;101059.11;;;11.95;45.82
25510;BME280;13413;52.336;21.200;2024-02-14T14:04:11;101054.95;;;11.86;45.62
25510;BME280;13413;52.336;21.200;2024-02-14T14:07:00;101055.47;;;11.89;45.89
25510;BME280;13413;52.336;21.200;2024-02-14T14:09:47;101051.34;;;11.83;45.77
25510;BME280;13413;52.336;21.200;2024-02-14T14:12:35;101054.25;;;11.79;46.36
25510;BME280;13413;52.336;21.200;2024-02-14T14:15:22;101054.87;;;11.88;46.19
25510;BME280;13413;52.336;21.200;2024-02-14T14:18:10;101052.55;;;11.92;46.14
25510;BME280;13413;52.336;21.200;2024-02-14T14:20:57;101058.36;;;11.81;45.72
25510;BME280;13413;52.336;21.200;2024-02-14T14:23:45;101058.46;;;11.57;45.39
25510;BME280;13413;52.336;21.200;2024-02-14T14:26:32;101060.01;;;11.50;45.90
25510;BME280;13413;52.336;21.200;2024-02-14T14:29:22;101059.77;;;11.51;45.90
25510;BME280;13413;52.336;21.200;2024-02-14T14:32:09;101058.75;;;11.34;45.98
25510;BME280;13413;52.336;21.200;2024-02-14T14:34:56;101061.38;;;11.25;46.23
25510;BME280;13413;52.336;21.200;2024-02-14T14:37:44;101057.55;;;11.22;46.44
25510;BME280;13413;52.336;21.200;2024-02-14T14:40:31;101057.47;;;11.24;46.58
25510;BME280;13413;52.336;21.200;2024-02-14T14:43:19;101054.62;;;11.15;46.44
25510;BME280;13413;52.336;21.200;2024-02-14T14:46:07;101054.19;;;11.09;46.68
25510;BME280;13413;52.336;21.200;2024-02-14T14:48:54;101054.86;;;11.06;46.69
25510;BME280;13413;52.336;21.200;2024-02-14T14:51:42;101049.91;;;10.86;46.87
25510;BME280;13413;52.336;21.200;2024-02-14T14:54:29;101047.50;;;10.79;47.11
25510;BME280;13413;52.336;21.200;2024-02-14T14:57:16;101048.17;;;10.74;47.34
25510;BME280;13413;52.336;21.200;2024-02-14T15:00:05;101050.04;;;10.66;47.52
25510;BME280;13413;52.336;21.200;2024-02-14T15:02:53;101052.95;;;10.59;47.74
25510;BME280;13413;52.336;21.200;2024-02-14T15:05:40;101053.34;;;10.52;48.03
25510;BME280;13413;52.336;21.200;2024-02-14T15:08:27;101053.88;;;10.46;48.14
25510;BME280;13413;52.336;21.200;2024-02-14T15:11:15;101057.80;;;10.43;48.21
25510;BME280;13413;52.336;21.200;2024-02-14T15:14:02;101053.27;;;10.37;48.23
25510;BME280;13413;52.336;21.200;2024-02-14T15:16:50;101049.00;;;10.32;48.40
25510;BME280;13413;52.336;21.200;2024-02-14T15:19:37;101049.98;;;10.26;48.50
25510;BME280;13413;52.336;21.200;2024-02-14T15:22:25;101050.23;;;10.20;48.73
25510;BME280;13413;52.336;21.200;2024-02-14T15:25:13;101050.03;;;10.15;48.89
25510;BME280;13413;52.336;21.200;2024-02-14T15:28:06;101052.92;;;10.09;49.07